x

Central Gulf Of Alaska - 265nm West Of Cape Ommaney, Akk (46085) Wave Buoy

10:50pm - Fri 24th Feb 2017 All times are UTC.

  • Sig Wave height 8.2ft
  • Peak Period 13s
  • Average Period 6s
  • Wind
    20mph, 25mph gusts
  • Sea Temp 41°f
  • Air Temp 39°f
  • Sea Pressure 1034.4mb

More Historic Weather Station data

Upgrade to MSW Pro to gain access to the past 30 days of data for over 8000 Wavebouys and Weather Stations around the globe.

Join Pro

Comparision Forecast

View Surf forecast
   
Fri 02/24 10:50pm 8ft 13s 6s 20 25 mph 1034.4mb 41f 39f
9:50pm 7.5ft 14s 6s 20 27 mph 1034.7mb 41f 39f
8:50pm 7ft 5s 6s 18 22 mph 1034.7mb 41f 38f
7:50pm 7.5ft 13s 6s 18 22 mph 1035mb 41f 38f
6:50pm 7.5ft 12s 6s 18 22 mph 1034.7mb 41f 38f
5:50pm 8.5ft 14s 6s 18 25 mph 1034.6mb 41f 39f
4:50pm 9ft 13s 7s 20 25 mph 1034.6mb 41f 40f
3:50pm 7ft 11s 6s 22 25 mph 1034.4mb 41f 40f
2:50pm 7ft 13s 7s 20 25 mph 1034.3mb 41f 40f
1:50pm 7ft 14s 7s 18 20 mph 1034.8mb 41f 40f
12:50pm 6ft 14s 7s 16 20 mph 1034.9mb 41f 39f
11:50am 6.5ft 11s 7s 13 18 mph 1035.5mb 41f 40f
10:50am 7ft 14s 8s 13 18 mph 1035.2mb 41f 41f
9:50am 6.5ft 13s 7s 13 16 mph 1035.3mb 41f 41f
8:50am 7ft 14s 7s 11 16 mph 1035.6mb 41f 40f
7:50am 7.5ft 15s 7s 13 16 mph 1035.8mb 41f 41f
6:50am 8ft 14s 8s 11 16 mph 1035.4mb 41f 40f
5:50am 8ft 13s 8s 13 16 mph 1035.6mb 41f 40f
4:50am 8ft 14s 8s 13 16 mph 1035.9mb 41f 40f
3:50am 7.5ft 14s 8s 11 13 mph 1036mb 42f 40f
2:50am 8ft 14s 8s 11 13 mph 1035.8mb 42f 40f
12:50am 7.5ft 14s 7s 9 11 mph 1035.6mb 42f 39f
Thu 02/23 11:50pm 7ft 15s 8s 9 13 mph 1035.7mb 42f 40f
10:50pm 6.5ft 14s 7s 9 11 mph 1035.2mb 42f 40f
9:50pm 7ft 10s 7s 7 9 mph 1035.2mb 42f 40f
8:50pm 7.5ft 15s 7s 4 9 mph 1034.9mb 41f 41f
7:50pm 8ft 8s 7s 11 13 mph 1034.6mb 41f 40f
6:50pm 8ft 13s 7s 11 16 mph 1033.9mb 41f 40f
5:50pm 9ft 8s 7s 13 18 mph 1033.4mb 41f 41f
4:50pm 9.5ft 13s 7s 11 13 mph 1032.5mb 41f 41f
3:50pm 9.5ft 9s 7s 11 13 mph 1031.9mb 41f 40f
2:50pm 10ft 10s 7s 16 22 mph 1031.8mb 41f 40f
1:50pm 10.5ft 9s 7s 18 22 mph 1031.4mb 41f 40f
12:50pm 10ft 10s 7s 18 22 mph 1030.9mb 41f 40f
11:50am 11ft 8s 7s 20 25 mph 1030.5mb 41f 40f
10:50am 11ft 11s 7s 18 22 mph 1029.8mb 41f 39f
9:50am 10ft 9s 7s 20 22 mph 1028.5mb 41f 39f
8:50am 11ft 10s 7s 18 22 mph 1027.5mb 41f 40f
7:50am 11.5ft 8s 7s 20 25 mph 1026.4mb 41f 40f
6:50am 12ft 10s 7s 20 27 mph 1026mb 41f 40f
5:50am 13ft 9s 7s 22 27 mph 1025.7mb 41f 40f
4:50am 12.5ft 10s 7s 25 29 mph 1025.4mb 41f 39f
3:50am 12ft 10s 7s 27 31 mph 1025.3mb 41f 40f
2:50am 9.5ft 8s 6s 27 34 mph 1024.8mb 41f 40f
1:50am 8ft 7s 6s 25 29 mph 1024.2mb 41f 40f
12:50am 8ft 16s 6s 22 27 mph 1024.2mb 41f 41f
Wed 02/22 11:50pm 6ft 6s 5s 22 27 mph 1024.1mb 41f 41f
10:50pm 6ft 6s 5s 22 27 mph 1023.8mb 41f 41f
9:50pm 6ft 5s 5s 22 25 mph 1024.2mb 41f 40f
8:50pm 5ft 5s 4s 25 29 mph 1024.7mb 41f 39f
7:50pm 5ft 6s 4s 22 27 mph 1025.2mb 41f 39f
6:50pm 4.5ft 7s 5s 20 22 mph 1025.7mb 41f 40f
5:50pm 4.5ft 7s 5s 18 25 mph 1026.2mb 41f 39f
4:50pm 4.5ft 8s 5s 18 20 mph 1026.9mb 41f 38f
3:50pm 5ft 8s 5s 13 18 mph 1027.2mb 41f 38f
2:50pm 5ft 7s 6s 13 16 mph 1027.9mb 41f 38f
1:50pm 5ft 8s 6s 9 13 mph 1028.3mb 41f 37f
12:50pm 5.5ft 8s 6s 9 13 mph 1028.4mb 41f 37f
10:50am 6.5ft 8s 6s 9 13 mph 1028.1mb 41f 36f
9:50am 7ft 9s 6s 13 16 mph 1028.1mb 41f 36f
8:50am 8ft 9s 6s 13 18 mph 1027.7mb 41f 36f
7:50am 7.5ft 8s 6s 13 20 mph 1026.7mb 41f 36f
6:50am 8ft 9s 6s 20 25 mph 1026mb 41f 36f
5:50am 8ft 8s 6s 20 25 mph 1025.4mb 41f 35f
4:50am 8.5ft 8s 6s 18 25 mph 1024.8mb 42f 35f
3:50am 9ft 9s 6s 18 25 mph 1024.1mb 42f 35f
2:50am 8.5ft 9s 6s 20 25 mph 1023.1mb 41f 35f
1:50am 9ft 9s 6s 25 27 mph 1022.2mb 41f 35f
12:50am 9ft 9s 6s 22 27 mph 1021.6mb 41f 35f
Tue 02/21 11:50pm 9.5ft 10s 6s 22 27 mph 1020.9mb 41f 33f
10:50pm 9ft 8s 6s 27 34 mph 1020.1mb 41f 34f
9:50pm 10ft 9s 6s 27 34 mph 1019.7mb 41f 33f
8:50pm 9.5ft 9s 6s 25 36 mph 1019.2mb 41f 31f
7:50pm 9ft 8s 6s 22 27 mph 1018.2mb 41f 33f
6:50pm 9.5ft 8s 6s 27 31 mph 1017.2mb 41f 34f
5:50pm 8.5ft 8s 6s 27 34 mph 1016.3mb 41f 34f
4:50pm 9ft 9s 6s 16 25 mph 1015.7mb 42f 32f
3:50pm 9ft 8s 6s 25 31 mph 1015.2mb 42f 31f
2:50pm 9ft 8s 6s 22 27 mph 1014.7mb 42f 33f
1:50pm 8ft 8s 6s 27 34 mph 1014.1mb 41f 32f
12:50pm 7.5ft 8s 5s 29 34 mph 1013.9mb 41f 32f
11:50am 7ft 6s 5s 22 29 mph 1013.8mb 41f 35f
10:50am 7ft 9s 5s 27 31 mph 1013.5mb 41f 35f
9:50am 6ft 9s 5s 25 31 mph 1013.2mb 41f 36f
8:50am 5.5ft 11s 5s 25 29 mph 1012.9mb 41f 37f
7:50am 5ft 9s 6s 20 27 mph 1012.7mb 42f 38f
6:50am 5.5ft 10s 7s 13 16 mph 1012.9mb 42f 38f
5:50am 5ft 11s 7s 7 9 mph 1012.8mb 42f 38f
4:50am 5ft 9s 7s 2 4 mph 1012.6mb 42f 37f
3:50am 5ft 8s 6s 4
mph
1012.5mb 42f 38f
2:50am 5ft 11s 7s 7 11 mph 1012.4mb 42f 37f
1:50am 5ft 11s 6s 9 13 mph 1012.1mb 42f 37f
12:50am 5ft 10s 6s 9 13 mph 1011.8mb 42f 37f